SLVR/VVI METAR and TAF weather

Enter ICAO airport designator
Station Type Date Time Source
SLVR METAR 2021/10/22 19:00 UTC NOAA

SLVR 221900Z 33020G32KT 8000 SCT023 35/22 Q1004


Station Type Date Time Source
SLVR Decoded METAR 2021/10/22 19:00 UTC NOAA

Viru-Viru, Bolivia (SLVR) 17-38S 063-08W
Oct 22, 2021 - 03:00 PM EDT / 2021.10.22 1900 UTC
Wind: from the NNW (330 degrees) at 23 MPH (20 KT) gusting to 37 MPH (32 KT):0
Visibility: 4 mile(s):0
Sky conditions: partly cloudy
Temperature: 95 F (35 C)
Heat index: 102.6 F (39.2 C):1
Dew Point: 71 F (22 C)
Relative Humidity: 46%
Pressure (altimeter): 29.65 in. Hg (1004 hPa)
ob: SLVR 221900Z 33020G32KT 8000 SCT023 35/22 Q1004
cycle: 19

Station Type Date Time Source
SLVR TAF 2021/10/22 18:23 UTC NOAA

TAF SLVR 221550Z 2218/2318 34020G30KT 5000 FU SCT023 TX36/2220Z TN24/ 2310Z
BECMG 2223/2301 35012KT 7000 NSC
BECMG 2313/2315 34025G40KT SCT020

Example: see airport list